sensor_id;sensor_type;location;lat;lon;timestamp;pressure;altitude;pressure_sealevel;temperature;humidity
65760;BME280;52496;51.082;5.066;2023-04-15T00:02:18;100570.38;;;6.16;100.00
65760;BME280;52496;51.082;5.066;2023-04-15T00:04:49;100577.03;;;6.20;100.00
65760;BME280;52496;51.082;5.066;2023-04-15T00:07:20;100564.41;;;6.22;100.00
65760;BME280;52496;51.082;5.066;2023-04-15T00:09:50;100577.19;;;6.27;100.00
65760;BME280;52496;51.082;5.066;2023-04-15T00:12:25;100566.25;;;6.30;100.00
65760;BME280;52496;51.082;5.066;2023-04-15T00:14:56;100571.06;;;6.34;100.00
65760;BME280;52496;51.082;5.066;2023-04-15T00:17:28;100564.63;;;6.37;100.00
65760;BME280;52496;51.082;5.066;2023-04-15T00:19:59;100569.41;;;6.41;100.00
65760;BME280;52496;51.082;5.066;2023-04-15T00:22:30;100569.09;;;6.44;100.00
65760;BME280;52496;51.082;5.066;2023-04-15T00:25:01;100566.78;;;6.50;100.00
65760;BME280;52496;51.082;5.066;2023-04-15T00:27:32;100567.47;;;6.52;100.00
65760;BME280;52496;51.082;5.066;2023-04-15T00:30:03;100571.44;;;6.56;100.00
65760;BME280;52496;51.082;5.066;2023-04-15T00:32:34;100576.09;;;6.62;100.00
65760;BME280;52496;51.082;5.066;2023-04-15T00:35:05;100571.28;;;6.65;100.00
65760;BME280;52496;51.082;5.066;2023-04-15T00:37:35;100563.97;;;6.68;100.00
65760;BME280;52496;51.082;5.066;2023-04-15T00:40:13;100571.78;;;6.69;100.00
65760;BME280;52496;51.082;5.066;2023-04-15T00:42:47;100569.44;;;6.74;100.00
65760;BME280;52496;51.082;5.066;2023-04-15T00:45:17;100566.66;;;6.76;100.00
65760;BME280;52496;51.082;5.066;2023-04-15T00:47:48;100566.31;;;6.79;100.00
65760;BME280;52496;51.082;5.066;2023-04-15T00:50:20;100560.66;;;6.82;100.00
65760;BME280;52496;51.082;5.066;2023-04-15T00:52:51;100567.44;;;6.84;100.00
65760;BME280;52496;51.082;5.066;2023-04-15T00:55:22;100565.31;;;6.88;100.00
65760;BME280;52496;51.082;5.066;2023-04-15T00:57:53;100567.63;;;6.91;100.00
65760;BME280;52496;51.082;5.066;2023-04-15T01:00:24;100568.13;;;6.95;100.00
65760;BME280;52496;51.082;5.066;2023-04-15T01:02:54;100565.78;;;7.00;100.00
65760;BME280;52496;51.082;5.066;2023-04-15T01:05:25;100570.59;;;7.04;100.00
65760;BME280;52496;51.082;5.066;2023-04-15T01:07:56;100566.59;;;7.08;100.00
65760;BME280;52496;51.082;5.066;2023-04-15T01:10:27;100568.78;;;7.13;100.00
65760;BME280;52496;51.082;5.066;2023-04-15T01:12:57;100574.56;;;7.17;100.00
65760;BME280;52496;51.082;5.066;2023-04-15T01:15:28;100571.72;;;7.18;100.00
65760;BME280;52496;51.082;5.066;2023-04-15T01:17:59;100573.41;;;7.19;100.00
65760;BME280;52496;51.082;5.066;2023-04-15T01:20:30;100567.09;;;7.20;100.00
65760;BME280;52496;51.082;5.066;2023-04-15T01:23:01;100567.75;;;7.22;100.00
65760;BME280;52496;51.082;5.066;2023-04-15T01:25:32;100569.41;;;7.23;100.00
65760;BME280;52496;51.082;5.066;2023-04-15T01:28:04;100567.22;;;7.27;100.00
65760;BME280;52496;51.082;5.066;2023-04-15T01:30:34;100570.56;;;7.29;100.00
65760;BME280;52496;51.082;5.066;2023-04-15T01:33:05;100569.41;;;7.31;100.00
65760;BME280;52496;51.082;5.066;2023-04-15T01:35:35;100570.06;;;7.33;98.41
65760;BME280;52496;51.082;5.066;2023-04-15T01:38:08;100576.03;;;7.35;97.51
65760;BME280;52496;51.082;5.066;2023-04-15T01:40:38;100569.53;;;7.38;97.02
65760;BME280;52496;51.082;5.066;2023-04-15T01:43:10;100562.38;;;7.39;96.20
65760;BME280;52496;51.082;5.066;2023-04-15T01:45:40;100565.72;;;7.41;97.17
65760;BME280;52496;51.082;5.066;2023-04-15T01:48:11;100569.03;;;7.43;97.56
65760;BME280;52496;51.082;5.066;2023-04-15T01:50:43;100569.69;;;7.45;98.60
65760;BME280;52496;51.082;5.066;2023-04-15T01:53:14;100557.22;;;7.45;98.37
65760;BME280;52496;51.082;5.066;2023-04-15T01:55:45;100567.69;;;7.47;95.75
65760;BME280;52496;51.082;5.066;2023-04-15T01:58:16;100561.38;;;7.48;94.56
65760;BME280;52496;51.082;5.066;2023-04-15T02:00:47;100555.69;;;7.51;94.03
65760;BME280;52496;51.082;5.066;2023-04-15T02:03:18;100559.69;;;7.55;100.00
65760;BME280;52496;51.082;5.066;2023-04-15T02:05:48;100566.81;;;7.54;100.00
65760;BME280;52496;51.082;5.066;2023-04-15T02:08:20;100566.66;;;7.56;100.00
65760;BME280;52496;51.082;5.066;2023-04-15T02:10:51;100567.50;;;7.56;98.56
65760;BME280;52496;51.082;5.066;2023-04-15T02:13:22;100563.81;;;7.57;99.67
65760;BME280;52496;51.082;5.066;2023-04-15T02:15:53;100563.66;;;7.59;100.00
65760;BME280;52496;51.082;5.066;2023-04-15T02:18:24;100563.66;;;7.59;97.54
65760;BME280;52496;51.082;5.066;2023-04-15T02:20:55;100574.13;;;7.61;98.03
65760;BME280;52496;51.082;5.066;2023-04-15T02:23:27;100581.75;;;7.64;98.94
65760;BME280;52496;51.082;5.066;2023-04-15T02:25:58;100580.59;;;7.66;100.00
65760;BME280;52496;51.082;5.066;2023-04-15T02:28:29;100581.41;;;7.67;100.00
65760;BME280;52496;51.082;5.066;2023-04-15T02:30:59;100582.28;;;7.67;100.00
65760;BME280;52496;51.082;5.066;2023-04-15T02:33:31;100578.59;;;7.68;100.00
65760;BME280;52496;51.082;5.066;2023-04-15T02:36:02;100578.59;;;7.68;100.00
65760;BME280;52496;51.082;5.066;2023-04-15T02:38:33;100584.75;;;7.69;100.00
65760;BME280;52496;51.082;5.066;2023-04-15T02:41:03;100578.59;;;7.68;100.00
65760;BME280;52496;51.082;5.066;2023-04-15T02:43:34;100589.41;;;7.67;100.00
65760;BME280;52496;51.082;5.066;2023-04-15T02:46:05;100582.44;;;7.66;100.00
65760;BME280;52496;51.082;5.066;2023-04-15T02:48:36;100582.63;;;7.64;100.00
65760;BME280;52496;51.082;5.066;2023-04-15T02:51:20;100600.56;;;7.62;100.00
65760;BME280;52496;51.082;5.066;2023-04-15T02:53:51;100596.91;;;7.63;100.00
65760;BME280;52496;51.082;5.066;2023-04-15T02:56:23;100605.91;;;7.62;98.94
65760;BME280;52496;51.082;5.066;2023-04-15T02:58:53;100606.72;;;7.63;98.79
65760;BME280;52496;51.082;5.066;2023-04-15T03:01:26;100597.91;;;7.62;100.00
65760;BME280;52496;51.082;5.066;2023-04-15T03:03:56;100599.56;;;7.63;99.02
65760;BME280;52496;51.082;5.066;2023-04-15T03:06:30;100603.06;;;7.64;97.78
65760;BME280;52496;51.082;5.066;2023-04-15T03:09:01;100603.91;;;7.64;96.93
65760;BME280;52496;51.082;5.066;2023-04-15T03:11:31;100599.41;;;7.65;98.33
65760;BME280;52496;51.082;5.066;2023-04-15T03:14:02;100610.88;;;7.65;98.21
65760;BME280;52496;51.082;5.066;2023-04-15T03:16:32;100608.22;;;7.65;96.75
65760;BME280;52496;51.082;5.066;2023-04-15T03:19:03;100602.72;;;7.67;97.40
65760;BME280;52496;51.082;5.066;2023-04-15T03:21:33;100608.03;;;7.67;97.43
65760;BME280;52496;51.082;5.066;2023-04-15T03:24:04;100616.69;;;7.69;99.11
65760;BME280;52496;51.082;5.066;2023-04-15T03:26:35;100614.22;;;7.67;97.87
65760;BME280;52496;51.082;5.066;2023-04-15T03:29:06;100629.31;;;7.67;95.73
65760;BME280;52496;51.082;5.066;2023-04-15T03:31:36;100628.50;;;7.66;95.35
65760;BME280;52496;51.082;5.066;2023-04-15T03:34:07;100633.81;;;7.66;96.59
65760;BME280;52496;51.082;5.066;2023-04-15T03:36:37;100635.66;;;7.66;96.10
65760;BME280;52496;51.082;5.066;2023-04-15T03:39:08;100638.31;;;7.66;97.24
65760;BME280;52496;51.082;5.066;2023-04-15T03:41:38;100640.31;;;7.64;97.17
65760;BME280;52496;51.082;5.066;2023-04-15T03:44:10;100639.50;;;7.63;97.02
65760;BME280;52496;51.082;5.066;2023-04-15T03:46:41;100637.84;;;7.62;97.80
65760;BME280;52496;51.082;5.066;2023-04-15T03:49:12;100638.66;;;7.63;100.00
65760;BME280;52496;51.082;5.066;2023-04-15T03:51:43;100641.50;;;7.61;99.14
65760;BME280;52496;51.082;5.066;2023-04-15T03:54:13;100638.19;;;7.59;99.68
65760;BME280;52496;51.082;5.066;2023-04-15T03:56:44;100645.34;;;7.58;99.07
65760;BME280;52496;51.082;5.066;2023-04-15T03:59:15;100645.50;;;7.57;97.89
65760;BME280;52496;51.082;5.066;2023-04-15T04:01:45;100642.81;;;7.57;97.73
65760;BME280;52496;51.082;5.066;2023-04-15T04:04:16;100643.84;;;7.56;96.32
65760;BME280;52496;51.082;5.066;2023-04-15T04:06:46;100651.81;;;7.56;97.37
65760;BME280;52496;51.082;5.066;2023-04-15T04:09:17;100657.28;;;7.54;96.40
65760;BME280;52496;51.082;5.066;2023-04-15T04:11:48;100657.28;;;7.54;96.68
65760;BME280;52496;51.082;5.066;2023-04-15T04:14:18;100658.97;;;7.55;97.29
65760;BME280;52496;51.082;5.066;2023-04-15T04:16:49;100660.63;;;7.56;95.82
65760;BME280;52496;51.082;5.066;2023-04-15T04:19:20;100668.47;;;7.58;95.88
65760;BME280;52496;51.082;5.066;2023-04-15T04:21:51;100667.44;;;7.59;95.89
65760;BME280;52496;51.082;5.066;2023-04-15T04:24:21;100670.94;;;7.59;95.83
65760;BME280;52496;51.082;5.066;2023-04-15T04:26:52;100679.59;;;7.62;95.78
65760;BME280;52496;51.082;5.066;2023-04-15T04:29:23;100685.75;;;7.62;95.52
65760;BME280;52496;51.082;5.066;2023-04-15T04:31:53;100680.41;;;7.62;95.49
65760;BME280;52496;51.082;5.066;2023-04-15T04:34:24;100689.91;;;7.65;95.34
65760;BME280;52496;51.082;5.066;2023-04-15T04:36:54;100685.41;;;7.65;95.19
65760;BME280;52496;51.082;5.066;2023-04-15T04:39:25;100691.56;;;7.66;95.24
65760;BME280;52496;51.082;5.066;2023-04-15T04:41:56;100694.06;;;7.67;95.42
65760;BME280;52496;51.082;5.066;2023-04-15T04:44:27;100700.22;;;7.68;95.21
65760;BME280;52496;51.082;5.066;2023-04-15T04:46:57;100696.53;;;7.69;95.32
65760;BME280;52496;51.082;5.066;2023-04-15T04:49:28;100704.38;;;7.70;95.68
65760;BME280;52496;51.082;5.066;2023-04-15T04:51:58;100700.69;;;7.71;95.24
65760;BME280;52496;51.082;5.066;2023-04-15T04:54:29;100700.69;;;7.71;94.96
65760;BME280;52496;51.082;5.066;2023-04-15T04:57:01;100713.81;;;7.73;94.90
65760;BME280;52496;51.082;5.066;2023-04-15T04:59:32;100716.31;;;7.74;95.00
65760;BME280;52496;51.082;5.066;2023-04-15T05:02:02;100723.31;;;7.75;95.24
65760;BME280;52496;51.082;5.066;2023-04-15T05:04:33;100727.66;;;7.76;94.51
65760;BME280;52496;51.082;5.066;2023-04-15T05:07:03;100742.59;;;7.77;94.70
65760;BME280;52496;51.082;5.066;2023-04-15T05:09:34;100726.31;;;7.80;94.39
65760;BME280;52496;51.082;5.066;2023-04-15T05:12:06;100741.09;;;7.83;94.25
65760;BME280;52496;51.082;5.066;2023-04-15T05:14:38;100749.59;;;7.87;93.69
65760;BME280;52496;51.082;5.066;2023-04-15T05:17:09;100743.91;;;7.90;94.01
65760;BME280;52496;51.082;5.066;2023-04-15T05:19:40;100752.41;;;7.93;93.09
65760;BME280;52496;51.082;5.066;2023-04-15T05:22:10;100756.22;;;7.99;93.91
65760;BME280;52496;51.082;5.066;2023-04-15T05:24:41;100756.72;;;8.02;92.98
65760;BME280;52496;51.082;5.066;2023-04-15T05:27:12;100764.19;;;8.07;93.00
65760;BME280;52496;51.082;5.066;2023-04-15T05:29:43;100762.84;;;8.11;92.55
65760;BME280;52496;51.082;5.066;2023-04-15T05:32:14;100761.50;;;8.15;92.46
65760;BME280;52496;51.082;5.066;2023-04-15T05:34:44;100769.81;;;8.20;91.86
65760;BME280;52496;51.082;5.066;2023-04-15T05:37:15;100786.13;;;8.25;91.58
65760;BME280;52496;51.082;5.066;2023-04-15T05:39:45;100793.59;;;8.30;91.45
65760;BME280;52496;51.082;5.066;2023-04-15T05:42:16;100785.09;;;8.35;91.41
65760;BME280;52496;51.082;5.066;2023-04-15T05:44:46;100796.09;;;8.40;91.01
65760;BME280;52496;51.082;5.066;2023-04-15T05:47:17;100790.41;;;8.43;90.30
65760;BME280;52496;51.082;5.066;2023-04-15T05:49:47;100795.91;;;8.49;90.38
65760;BME280;52496;51.082;5.066;2023-04-15T05:52:17;100788.56;;;8.52;89.64
65760;BME280;52496;51.082;5.066;2023-04-15T05:54:48;100805.56;;;8.59;90.08
65760;BME280;52496;51.082;5.066;2023-04-15T05:57:18;100822.16;;;8.69;89.13
65760;BME280;52496;51.082;5.066;2023-04-15T05:59:49;100814.31;;;8.76;88.52
65760;BME280;52496;51.082;5.066;2023-04-15T06:02:22;100817.97;;;8.83;87.79
65760;BME280;52496;51.082;5.066;2023-04-15T06:04:52;100824.06;;;8.91;87.52
65760;BME280;52496;51.082;5.066;2023-04-15T06:07:23;100827.72;;;8.99;86.49
65760;BME280;52496;51.082;5.066;2023-04-15T06:09:53;100833.16;;;9.05;86.72
65760;BME280;52496;51.082;5.066;2023-04-15T06:12:24;100842.81;;;9.06;85.47
65760;BME280;52496;51.082;5.066;2023-04-15T06:14:54;100850.66;;;9.08;85.01
65760;BME280;52496;51.082;5.066;2023-04-15T06:17:26;100852.19;;;9.02;85.08
65760;BME280;52496;51.082;5.066;2023-04-15T06:19:56;100860.53;;;8.99;84.73
65760;BME280;52496;51.082;5.066;2023-04-15T06:22:26;100864.56;;;8.95;84.24
65760;BME280;52496;51.082;5.066;2023-04-15T06:24:57;100864.91;;;8.92;84.73
65760;BME280;52496;51.082;5.066;2023-04-15T06:27:28;100874.25;;;8.88;84.36
65760;BME280;52496;51.082;5.066;2023-04-15T06:29:58;100877.59;;;8.82;84.18
65760;BME280;52496;51.082;5.066;2023-04-15T06:32:29;100887.13;;;8.76;84.79
65760;BME280;52496;51.082;5.066;2023-04-15T06:35:00;100890.97;;;8.73;84.90
65760;BME280;52496;51.082;5.066;2023-04-15T06:37:30;100896.66;;;8.70;85.35
65760;BME280;52496;51.082;5.066;2023-04-15T06:40:02;100894.97;;;8.69;85.40
65760;BME280;52496;51.082;5.066;2023-04-15T06:42:34;100892.84;;;8.65;86.13
65760;BME280;52496;51.082;5.066;2023-04-15T06:45:06;100899.66;;;8.59;86.29
65760;BME280;52496;51.082;5.066;2023-04-15T06:47:38;100907.00;;;8.57;86.69
65760;BME280;52496;51.082;5.066;2023-04-15T06:50:08;100908.84;;;8.57;87.32
65760;BME280;52496;51.082;5.066;2023-04-15T06:52:39;100904.31;;;8.57;87.60
65760;BME280;52496;51.082;5.066;2023-04-15T06:55:10;100906.00;;;8.58;87.60
65760;BME280;52496;51.082;5.066;2023-04-15T06:57:40;100905.69;;;8.61;87.99
65760;BME280;52496;51.082;5.066;2023-04-15T07:00:11;100918.97;;;8.69;87.41
65760;BME280;52496;51.082;5.066;2023-04-15T07:02:43;100904.13;;;8.83;87.17
65760;BME280;52496;51.082;5.066;2023-04-15T07:05:14;100905.34;;;9.04;87.46
65760;BME280;52496;51.082;5.066;2023-04-15T07:07:44;100909.13;;;9.26;84.92
65760;BME280;52496;51.082;5.066;2023-04-15T07:10:15;100905.34;;;9.43;83.39
65760;BME280;52496;51.082;5.066;2023-04-15T07:12:47;100907.75;;;9.61;83.46
65760;BME280;52496;51.082;5.066;2023-04-15T07:15:19;100913.47;;;9.81;82.75
65760;BME280;52496;51.082;5.066;2023-04-15T07:17:49;100915.50;;;10.02;82.90
65760;BME280;52496;51.082;5.066;2023-04-15T07:20:20;100914.63;;;10.24;81.49
65760;BME280;52496;51.082;5.066;2023-04-15T07:22:51;100918.28;;;10.46;80.99
65760;BME280;52496;51.082;5.066;2023-04-15T07:25:22;100922.78;;;10.69;79.75
65760;BME280;52496;51.082;5.066;2023-04-15T07:27:53;100930.25;;;10.88;78.60
65760;BME280;52496;51.082;5.066;2023-04-15T07:30:23;100938.06;;;11.05;76.20
65760;BME280;52496;51.082;5.066;2023-04-15T07:32:54;100942.59;;;11.19;77.13
65760;BME280;52496;51.082;5.066;2023-04-15T07:35:25;100943.25;;;11.36;76.16
65760;BME280;52496;51.082;5.066;2023-04-15T07:37:55;100950.22;;;11.52;75.44
65760;BME280;52496;51.082;5.066;2023-04-15T07:40:27;100945.66;;;11.67;74.94
65760;BME280;52496;51.082;5.066;2023-04-15T07:42:57;100955.13;;;11.84;72.17
65760;BME280;52496;51.082;5.066;2023-04-15T07:45:28;100947.91;;;12.00;72.16
65760;BME280;52496;51.082;5.066;2023-04-15T07:47:58;100959.63;;;12.20;72.94
65760;BME280;52496;51.082;5.066;2023-04-15T07:50:29;100964.09;;;12.34;70.31
65760;BME280;52496;51.082;5.066;2023-04-15T07:53:00;100968.72;;;12.47;71.17
65760;BME280;52496;51.082;5.066;2023-04-15T07:55:31;100979.38;;;12.62;70.18
65760;BME280;52496;51.082;5.066;2023-04-15T07:58:01;100978.47;;;12.76;69.44
65760;BME280;52496;51.082;5.066;2023-04-15T08:00:32;100978.75;;;12.88;70.05
65760;BME280;52496;51.082;5.066;2023-04-15T08:03:03;100984.19;;;13.01;70.17
65760;BME280;52496;51.082;5.066;2023-04-15T08:05:34;100988.22;;;13.19;70.22
65760;BME280;52496;51.082;5.066;2023-04-15T08:08:04;100987.09;;;13.35;69.38
65760;BME280;52496;51.082;5.066;2023-04-15T08:10:36;101004.75;;;13.57;70.54
65760;BME280;52496;51.082;5.066;2023-04-15T08:13:06;101004.81;;;13.64;67.06
65760;BME280;52496;51.082;5.066;2023-04-15T08:15:37;100995.75;;;13.78;68.58
65760;BME280;52496;51.082;5.066;2023-04-15T08:18:08;101009.25;;;13.91;67.23
65760;BME280;52496;51.082;5.066;2023-04-15T08:20:39;101005.56;;;14.06;67.33
65760;BME280;52496;51.082;5.066;2023-04-15T08:23:10;101020.50;;;14.21;66.23
65760;BME280;52496;51.082;5.066;2023-04-15T08:25:40;101024.44;;;14.26;65.96
65760;BME280;52496;51.082;5.066;2023-04-15T08:28:11;101029.00;;;14.25;64.85
65760;BME280;52496;51.082;5.066;2023-04-15T08:30:42;101031.47;;;14.27;64.08
65760;BME280;52496;51.082;5.066;2023-04-15T08:33:12;101039.53;;;14.27;64.14
65760;BME280;52496;51.082;5.066;2023-04-15T08:35:43;101040.56;;;14.32;65.21
65760;BME280;52496;51.082;5.066;2023-04-15T08:38:14;101052.41;;;14.44;66.90
65760;BME280;52496;51.082;5.066;2023-04-15T08:40:45;101049.75;;;14.51;63.38
65760;BME280;52496;51.082;5.066;2023-04-15T08:43:22;101061.50;;;14.43;64.52
65760;BME280;52496;51.082;5.066;2023-04-15T08:45:56;101070.41;;;14.44;63.61
65760;BME280;52496;51.082;5.066;2023-04-15T08:48:32;101072.06;;;14.45;62.67
65760;BME280;52496;51.082;5.066;2023-04-15T08:51:04;101086.97;;;14.41;62.11
65760;BME280;52496;51.082;5.066;2023-04-15T08:53:35;101081.56;;;14.34;63.61
65760;BME280;52496;51.082;5.066;2023-04-15T08:56:08;101086.38;;;14.45;64.15
65760;BME280;52496;51.082;5.066;2023-04-15T08:58:43;101091.56;;;14.60;61.54
65760;BME280;52496;51.082;5.066;2023-04-15T09:01:15;101095.13;;;14.67;62.31
65760;BME280;52496;51.082;5.066;2023-04-15T09:03:48;101101.97;;;14.77;60.91
65760;BME280;52496;51.082;5.066;2023-04-15T09:06:20;101104.44;;;14.85;61.28
65760;BME280;52496;51.082;5.066;2023-04-15T09:08:51;101106.50;;;14.96;60.36
65760;BME280;52496;51.082;5.066;2023-04-15T09:11:22;101107.13;;;15.11;61.48
65760;BME280;52496;51.082;5.066;2023-04-15T09:13:53;101112.31;;;15.26;59.05
65760;BME280;52496;51.082;5.066;2023-04-15T09:16:23;101113.34;;;15.38;59.67
65760;BME280;52496;51.082;5.066;2023-04-15T09:18:54;101130.13;;;15.47;58.48
65760;BME280;52496;51.082;5.066;2023-04-15T09:21:24;101134.88;;;15.52;58.10
65760;BME280;52496;51.082;5.066;2023-04-15T09:23:59;101128.03;;;15.56;57.07
65760;BME280;52496;51.082;5.066;2023-04-15T09:26:35;101136.09;;;15.63;55.99
65760;BME280;52496;51.082;5.066;2023-04-15T09:29:10;101142.53;;;15.62;54.25
65760;BME280;52496;51.082;5.066;2023-04-15T09:31:43;101149.59;;;15.69;56.11
65760;BME280;52496;51.082;5.066;2023-04-15T09:34:13;101158.50;;;15.70;52.77
65760;BME280;52496;51.082;5.066;2023-04-15T09:39:19;101163.69;;;15.78;53.91
65760;BME280;52496;51.082;5.066;2023-04-15T09:42:06;101169.47;;;15.88;53.26
65760;BME280;52496;51.082;5.066;2023-04-15T09:44:37;101164.91;;;15.95;52.45
65760;BME280;52496;51.082;5.066;2023-04-15T09:47:08;101159.50;;;15.95;53.22
65760;BME280;52496;51.082;5.066;2023-04-15T09:49:54;101167.75;;;16.14;52.28
65760;BME280;52496;51.082;5.066;2023-04-15T09:52:25;101174.72;;;16.28;53.08
65760;BME280;52496;51.082;5.066;2023-04-15T09:54:57;101169.91;;;16.43;54.01
65760;BME280;52496;51.082;5.066;2023-04-15T09:57:34;101181.59;;;16.69;50.11
65760;BME280;52496;51.082;5.066;2023-04-15T10:00:07;101186.13;;;16.75;51.11
65760;BME280;52496;51.082;5.066;2023-04-15T10:02:39;101191.84;;;16.92;49.16
65760;BME280;52496;51.082;5.066;2023-04-15T10:05:14;101193.28;;;17.01;46.80
65760;BME280;52496;51.082;5.066;2023-04-15T10:07:46;101203.41;;;17.06;44.73
65760;BME280;52496;51.082;5.066;2023-04-15T10:10:18;101206.75;;;17.08;45.06
65760;BME280;52496;51.082;5.066;2023-04-15T10:12:50;101210.47;;;17.07;44.82
65760;BME280;52496;51.082;5.066;2023-04-15T10:15:22;101200.09;;;17.04;44.54
65760;BME280;52496;51.082;5.066;2023-04-15T10:17:55;101203.41;;;17.06;45.68
65760;BME280;52496;51.082;5.066;2023-04-15T10:20:27;101211.31;;;17.07;44.92
65760;BME280;52496;51.082;5.066;2023-04-15T10:22:59;101200.91;;;17.11;45.86
65760;BME280;52496;51.082;5.066;2023-04-15T10:25:32;101205.75;;;17.27;45.68
65760;BME280;52496;51.082;5.066;2023-04-15T10:28:05;101213.22;;;17.32;45.24
65760;BME280;52496;51.082;5.066;2023-04-15T10:30:35;101206.63;;;17.46;44.76
65760;BME280;52496;51.082;5.066;2023-04-15T10:33:08;101213.47;;;17.49;43.67
65760;BME280;52496;51.082;5.066;2023-04-15T10:35:39;101215.13;;;17.50;43.36
65760;BME280;52496;51.082;5.066;2023-04-15T10:38:32;101225.34;;;17.48;41.73
65760;BME280;52496;51.082;5.066;2023-04-15T10:41:19;101223.78;;;17.58;42.58
65760;BME280;52496;51.082;5.066;2023-04-15T10:44:00;101232.38;;;17.80;43.06
65760;BME280;52496;51.082;5.066;2023-04-15T10:46:36;101237.94;;;18.04;40.49
65760;BME280;52496;51.082;5.066;2023-04-15T10:49:11;101235.56;;;18.14;38.40
65760;BME280;52496;51.082;5.066;2023-04-15T10:51:49;101242.38;;;18.17;39.14
65760;BME280;52496;51.082;5.066;2023-04-15T10:59:35;101250.59;;;18.28;40.54
65760;BME280;52496;51.082;5.066;2023-04-15T11:02:06;101262.25;;;18.29;39.66
65760;BME280;52496;51.082;5.066;2023-04-15T11:04:53;101248.88;;;18.34;40.23
65760;BME280;52496;51.082;5.066;2023-04-15T11:12:50;101260.22;;;18.43;39.07
65760;BME280;52496;51.082;5.066;2023-04-15T11:15:31;101267.91;;;18.46;36.12
65760;BME280;52496;51.082;5.066;2023-04-15T11:18:25;101269.72;;;18.33;37.06
65760;BME280;52496;51.082;5.066;2023-04-15T11:21:03;101271.34;;;18.34;36.45
65760;BME280;52496;51.082;5.066;2023-04-15T11:23:37;101288.81;;;18.39;36.55
65760;BME280;52496;51.082;5.066;2023-04-15T11:26:09;101281.00;;;18.30;37.53
65760;BME280;52496;51.082;5.066;2023-04-15T11:28:42;101280.69;;;18.20;38.93
65760;BME280;52496;51.082;5.066;2023-04-15T11:31:16;101278.66;;;18.34;39.92
65760;BME280;52496;51.082;5.066;2023-04-15T11:33:59;101284.53;;;18.49;38.82
65760;BME280;52496;51.082;5.066;2023-04-15T11:36:31;101283.03;;;18.53;39.23
65760;BME280;52496;51.082;5.066;2023-04-15T11:39:06;101289.41;;;18.59;39.94
65760;BME280;52496;51.082;5.066;2023-04-15T11:41:36;101291.81;;;18.67;40.19
65760;BME280;52496;51.082;5.066;2023-04-15T11:44:16;101288.00;;;18.56;41.48
65760;BME280;52496;51.082;5.066;2023-04-15T11:46:47;101286.25;;;18.62;41.28
65760;BME280;52496;51.082;5.066;2023-04-15T11:49:28;101293.34;;;18.63;41.85
65760;BME280;52496;51.082;5.066;2023-04-15T11:51:59;101293.47;;;18.68;39.73
65760;BME280;52496;51.082;5.066;2023-04-15T11:54:30;101298.41;;;18.71;37.23
65760;BME280;52496;51.082;5.066;2023-04-15T11:57:01;101320.09;;;18.71;35.85
65760;BME280;52496;51.082;5.066;2023-04-15T11:59:42;101320.88;;;18.78;36.50
65760;BME280;52496;51.082;5.066;2023-04-15T12:02:13;101326.91;;;18.99;36.85
65760;BME280;52496;51.082;5.066;2023-04-15T12:04:43;101324.31;;;19.04;36.61
65760;BME280;52496;51.082;5.066;2023-04-15T12:07:15;101326.13;;;18.92;33.98
65760;BME280;52496;51.082;5.066;2023-04-15T12:09:54;101323.28;;;19.05;35.76
65760;BME280;52496;51.082;5.066;2023-04-15T12:12:27;101319.91;;;19.21;36.97
65760;BME280;52496;51.082;5.066;2023-04-15T12:14:58;101330.38;;;19.48;37.10
65760;BME280;52496;51.082;5.066;2023-04-15T12:17:29;101321.63;;;19.46;35.37
65760;BME280;52496;51.082;5.066;2023-04-15T12:20:00;101337.81;;;19.22;35.65
65760;BME280;52496;51.082;5.066;2023-04-15T12:22:36;101346.91;;;18.98;35.43
65760;BME280;52496;51.082;5.066;2023-04-15T12:25:07;101345.63;;;18.64;36.19
65760;BME280;52496;51.082;5.066;2023-04-15T12:27:38;101344.34;;;18.48;36.90
65760;BME280;52496;51.082;5.066;2023-04-15T12:30:08;101349.59;;;18.43;37.28
65760;BME280;52496;51.082;5.066;2023-04-15T12:32:41;101358.19;;;18.58;37.43
65760;BME280;52496;51.082;5.066;2023-04-15T12:35:12;101353.97;;;18.62;38.25
65760;BME280;52496;51.082;5.066;2023-04-15T12:37:42;101351.34;;;18.74;39.10
65760;BME280;52496;51.082;5.066;2023-04-15T12:40:13;101355.66;;;19.00;38.71
65760;BME280;52496;51.082;5.066;2023-04-15T12:42:43;101365.34;;;19.08;37.15
65760;BME280;52496;51.082;5.066;2023-04-15T12:45:14;101366.50;;;19.30;35.47
65760;BME280;52496;51.082;5.066;2023-04-15T12:47:45;101363.56;;;19.32;36.81
65760;BME280;52496;51.082;5.066;2023-04-15T12:50:15;101382.84;;;19.42;35.30
65760;BME280;52496;51.082;5.066;2023-04-15T12:52:48;101377.03;;;19.38;34.53
65760;BME280;52496;51.082;5.066;2023-04-15T12:55:19;101377.91;;;19.20;35.18
65760;BME280;52496;51.082;5.066;2023-04-15T12:57:52;101378.38;;;19.17;34.63
65760;BME280;52496;51.082;5.066;2023-04-15T13:00:22;101383.25;;;19.27;34.78
65760;BME280;52496;51.082;5.066;2023-04-15T13:02:53;101375.38;;;19.37;35.54
65760;BME280;52496;51.082;5.066;2023-04-15T13:05:24;101390.97;;;19.42;34.85
65760;BME280;52496;51.082;5.066;2023-04-15T13:07:55;101397.16;;;19.31;33.82
65760;BME280;52496;51.082;5.066;2023-04-15T13:10:25;101390.22;;;19.35;36.79
65760;BME280;52496;51.082;5.066;2023-04-15T13:12:57;101391.06;;;19.65;35.30
65760;BME280;52496;51.082;5.066;2023-04-15T13:15:28;101391.81;;;19.73;35.30
65760;BME280;52496;51.082;5.066;2023-04-15T13:17:59;101407.56;;;19.64;35.19
65760;BME280;52496;51.082;5.066;2023-04-15T13:20:33;101405.63;;;19.53;35.58
65760;BME280;52496;51.082;5.066;2023-04-15T13:23:03;101408.34;;;19.53;35.53
65760;BME280;52496;51.082;5.066;2023-04-15T13:25:34;101395.38;;;19.55;35.23
65760;BME280;52496;51.082;5.066;2023-04-15T13:28:04;101406.75;;;19.63;35.29
65760;BME280;52496;51.082;5.066;2023-04-15T13:30:36;101416.25;;;19.73;35.83